Terminal Aerodrome Forecast
Issued by NWS Shreveport, LA

Home | Current Version | Previous Version | Text Only | Print | Product List | Glossary On
Versions: 1 2 3 4 5 6 7 8 9 10 11 12 13 14 15 16
000
FTUS44 KSHV 172300
TAFTYR
TAF
KTYR 172339Z 1800/1824 11007KT P6SM VCTS SCT040CB BKN080 BKN150
     FM180200 19004KT P6SM BKN150 BKN250
     FM180900 VRB03KT 6SM BR BKN015
      TEMPO 1809/1813 00000KT 5SM BR BKN007
     FM181600 16006KT P6SM FEW035 BKN250
     FM181800 16007KT P6SM VCTS BKN040CB BKN100=

USA.gov is the U.S. government's official web portal to all federal, state and local government web resources and services.